首页
METAR-TAF:

METAR-TAF

机场 :

希奥利艾机场

希奥利艾, 立陶宛

纬度: 55-53-38N, 经度: 023-23-42E, 海拔: 135米

当前天气观测

该预报发布于22分钟前的23:20 UTC
风速7节,风向
温度 1°C
湿度 86%
气压 990 hPa
能见度10公里或以上
少量云层高于1700英尺
散云层高于2200英尺
多云层高于14000英尺

METAR: EYSA 262320Z AUTO 19007KT 9999NDV FEW017 SCT022 BKN140 01/M01 Q0990 R14L/19//95 R14R/19//95

时间: 01:42 (23:42 UTC)

预报

该预报发布于42分钟前的23:00 UTC
预报有效从27日的 00点(UTC)到 27日的 09点(UTC)
风速8节,风向南转西南
能見度: 9000
多云层高于1500英尺
短暂存在
从 27日的 06点(UTC)到 27日的 09点(UTC)
能見度: 3000
多云层高于500英尺
多云层高于1800英尺, 积雨云.
阵雪, 雨

TAF: EYSA 262300Z 2700/2709 20008KT 9000 BKN015 TEMPO 2706/2709 3000 SHSNRA BKN005 BKN018CB

超过4000个机场的气象观测和天气预报(METAR&TAF报告)。

可查询的气象台以黄色和红色小点在地图上表示。

将鼠标移到小点上方,可查看气象台名称。

然后点击查看天气观测和预报。

如需切换地图:点击带黑十字的绿色按钮放大地图;点击带横线的绿色按钮缩小地图;或者点击绿色箭头查看邻近地区的地图。


METAR-TAF: